createdAt,value
2023-01-09T00:01:12.739Z,0.56
2023-01-09T00:03:40.022Z,0.79
2023-01-09T00:06:07.556Z,0.88
2023-01-09T00:08:34.754Z,0.44
2023-01-09T00:11:02.247Z,0.40
2023-01-09T00:13:29.381Z,0.35
2023-01-09T00:16:15.910Z,0.90
2023-01-09T00:18:43.158Z,0.78
2023-01-09T00:21:11.981Z,0.69
2023-01-09T00:23:39.354Z,0.69
2023-01-09T00:26:18.109Z,0.58
2023-01-09T00:28:46.672Z,0.58
2023-01-09T00:31:14.406Z,0.94
2023-01-09T00:33:44.771Z,0.98
2023-01-09T00:36:14.287Z,1.10
2023-01-09T00:38:41.596Z,1.14
2023-01-09T00:41:14.781Z,1.12
2023-01-09T00:43:44.462Z,0.92
2023-01-09T00:46:13.216Z,0.53
2023-01-09T00:48:42.790Z,0.71
2023-01-09T00:51:10.222Z,0.81
2023-01-09T00:53:41.620Z,0.62
2023-01-09T00:56:11.862Z,0.40
2023-01-09T00:58:39.199Z,0.37
2023-01-09T01:01:06.725Z,0.45
2023-01-09T01:03:34.258Z,0.38
2023-01-09T01:06:20.111Z,0.59
2023-01-09T01:08:47.337Z,0.41
2023-01-09T01:11:14.961Z,0.46
2023-01-09T01:13:42.974Z,0.25
2023-01-09T01:16:13.297Z,0.19
2023-01-09T01:18:41.766Z,0.17
2023-01-09T01:21:10.411Z,0.23
2023-01-09T01:23:38.368Z,0.55
2023-01-09T01:26:14.511Z,0.78
2023-01-09T01:28:41.736Z,0.89
2023-01-09T01:31:09.529Z,0.61
2023-01-09T01:33:36.656Z,0.43
2023-01-09T01:36:06.907Z,0.32
2023-01-09T01:38:35.102Z,0.77
2023-01-09T01:41:04.010Z,0.90
2023-01-09T01:43:51.352Z,0.90
2023-01-09T01:46:18.953Z,1.03
2023-01-09T01:48:48.222Z,1.28
2023-01-09T01:51:18.532Z,1.41
2023-01-09T01:53:54.247Z,1.33
2023-01-09T01:56:36.081Z,1.47
2023-01-09T01:59:20.477Z,1.53
2023-01-09T02:01:53.978Z,1.26
2023-01-09T02:04:21.228Z,1.46
2023-01-09T02:06:51.222Z,1.40
2023-01-09T02:09:23.029Z,1.39
2023-01-09T02:11:56.514Z,1.46
2023-01-09T02:14:27.406Z,1.54
2023-01-09T02:17:06.148Z,1.80
2023-01-09T02:19:39.278Z,1.97
2023-01-09T02:22:18.374Z,1.77
2023-01-09T02:25:13.481Z,1.37
2023-01-09T02:28:18.355Z,1.58
2023-01-09T02:30:51.449Z,1.75
2023-01-09T02:33:49.534Z,2.00
2023-01-09T02:36:31.962Z,2.11
2023-01-09T02:39:28.333Z,2.25
2023-01-09T02:42:19.391Z,2.44
2023-01-09T02:44:46.984Z,2.46
2023-01-09T02:47:17.277Z,2.57
2023-01-09T02:49:48.616Z,2.61
2023-01-09T02:52:35.130Z,2.57
2023-01-09T02:55:18.797Z,2.35
2023-01-09T02:58:28.435Z,2.56
2023-01-09T03:01:20.432Z,2.75
2023-01-09T03:04:02.500Z,2.69
2023-01-09T03:06:45.866Z,2.81
2023-01-09T03:09:22.604Z,2.39
2023-01-09T03:12:00.044Z,2.36
2023-01-09T03:14:30.873Z,2.32
2023-01-09T03:17:03.843Z,2.38
2023-01-09T03:19:34.137Z,2.48
2023-01-09T03:22:02.255Z,2.16
2023-01-09T03:24:29.653Z,1.73
2023-01-09T03:26:56.970Z,1.82
2023-01-09T03:29:24.392Z,1.64
2023-01-09T03:31:51.780Z,1.33
2023-01-09T03:34:19.136Z,1.09
2023-01-09T03:36:46.499Z,1.61
2023-01-09T03:39:13.766Z,1.52
2023-01-09T03:41:41.045Z,1.33
2023-01-09T03:44:08.149Z,1.32
2023-01-09T03:46:35.428Z,1.36
2023-01-09T03:49:02.689Z,1.54
2023-01-09T03:51:29.834Z,1.72
2023-01-09T03:53:57.070Z,1.82
2023-01-09T03:56:25.740Z,1.99
2023-01-09T03:58:53.718Z,2.17
2023-01-09T04:01:21.305Z,2.19
2023-01-09T04:03:48.649Z,2.06
2023-01-09T04:06:15.869Z,1.83
2023-01-09T04:08:42.982Z,2.08
2023-01-09T04:11:10.363Z,1.93
2023-01-09T04:13:37.809Z,2.06
2023-01-09T04:16:05.595Z,2.24
2023-01-09T04:18:32.915Z,2.37
2023-01-09T04:21:00.177Z,2.44
2023-01-09T04:23:28.550Z,2.16
2023-01-09T04:25:55.771Z,2.11
2023-01-09T04:28:22.998Z,2.27
2023-01-09T04:30:50.263Z,2.40
2023-01-09T04:33:17.663Z,2.65
2023-01-09T04:35:45.674Z,2.71
2023-01-09T04:38:13.134Z,2.48
2023-01-09T04:40:40.333Z,2.84
2023-01-09T04:43:07.626Z,2.59
2023-01-09T04:46:07.546Z,2.33
2023-01-09T04:48:34.673Z,2.23
2023-01-09T04:51:01.991Z,2.43
2023-01-09T04:53:29.165Z,2.23
2023-01-09T04:55:56.260Z,2.26
2023-01-09T04:58:23.537Z,2.44
2023-01-09T05:00:50.710Z,2.48
2023-01-09T05:03:17.831Z,2.56
2023-01-09T05:05:45.113Z,2.53
2023-01-09T05:08:12.343Z,2.76
2023-01-09T05:10:39.522Z,2.69
2023-01-09T05:13:06.812Z,2.87
2023-01-09T05:15:34.107Z,2.07
2023-01-09T05:18:01.360Z,2.30
2023-01-09T05:20:28.737Z,2.29
2023-01-09T05:22:56.067Z,2.43
2023-01-09T05:25:23.443Z,2.55
2023-01-09T05:27:52.339Z,2.10
2023-01-09T05:30:21.391Z,2.15
2023-01-09T05:32:57.211Z,2.32
2023-01-09T05:35:26.451Z,1.71
2023-01-09T05:37:55.013Z,2.14
2023-01-09T05:40:24.817Z,2.13
2023-01-09T05:42:56.033Z,2.22
2023-01-09T05:45:23.146Z,2.16
2023-01-09T05:47:50.475Z,2.41
2023-01-09T05:50:46.086Z,2.50
2023-01-09T05:56:44.530Z,2.25
2023-01-09T05:59:11.870Z,2.35
2023-01-09T06:01:39.425Z,2.43
2023-01-09T06:04:06.852Z,2.89
2023-01-09T06:06:35.051Z,3.01
2023-01-09T06:09:03.758Z,2.53
2023-01-09T06:11:31.048Z,3.03
2023-01-09T06:13:58.392Z,3.09
2023-01-09T06:16:25.849Z,3.26
2023-01-09T06:18:53.464Z,2.85
2023-01-09T06:21:20.840Z,2.70
2023-01-09T06:23:48.164Z,3.23
2023-01-09T06:26:15.588Z,3.10
2023-01-09T06:28:44.647Z,3.40
2023-01-09T06:31:12.352Z,3.39
2023-01-09T06:33:39.479Z,3.32
2023-01-09T06:36:07.142Z,3.48
2023-01-09T06:38:34.512Z,3.18
2023-01-09T06:41:01.824Z,3.61
2023-01-09T06:43:29.169Z,3.65
2023-01-09T06:45:57.034Z,3.76
2023-01-09T06:48:27.312Z,3.55
2023-01-09T06:50:54.713Z,3.47
2023-01-09T06:53:21.942Z,3.56
2023-01-09T06:55:49.409Z,3.55
2023-01-09T06:58:16.849Z,3.54
2023-01-09T07:00:44.069Z,3.58
2023-01-09T07:03:11.779Z,3.67
2023-01-09T07:05:42.249Z,3.00
2023-01-09T07:08:10.449Z,2.75
2023-01-09T07:10:37.845Z,2.89
2023-01-09T07:13:05.023Z,3.04
2023-01-09T07:15:33.082Z,3.18
2023-01-09T07:18:00.468Z,3.34
2023-01-09T07:20:27.664Z,3.38
2023-01-09T07:22:54.815Z,3.49
2023-01-09T07:25:22.217Z,3.56
2023-01-09T07:27:49.475Z,3.39
2023-01-09T07:30:17.060Z,3.50
2023-01-09T07:32:44.453Z,3.15
2023-01-09T07:35:11.715Z,2.97
2023-01-09T07:38:25.040Z,2.95
2023-01-09T07:40:52.195Z,2.94
2023-01-09T07:43:28.374Z,2.39
2023-01-09T07:45:56.160Z,2.75
2023-01-09T07:48:23.586Z,3.05
2023-01-09T07:50:50.941Z,3.19
2023-01-09T07:53:18.564Z,3.14
2023-01-09T07:55:46.027Z,3.45
2023-01-09T07:58:13.313Z,3.53
2023-01-09T08:00:41.757Z,3.59
2023-01-09T08:03:08.946Z,3.73
2023-01-09T08:05:37.215Z,3.72
2023-01-09T08:08:05.156Z,3.80
2023-01-09T08:10:32.388Z,3.77
2023-01-09T08:12:59.638Z,3.90
2023-01-09T08:15:26.857Z,3.82
2023-01-09T08:17:54.188Z,3.81
2023-01-09T08:20:21.488Z,3.84
2023-01-09T08:22:50.152Z,3.81
2023-01-09T08:25:18.316Z,3.83
2023-01-09T08:27:45.747Z,3.95
2023-01-09T08:30:13.442Z,4.07
2023-01-09T08:32:41.516Z,4.07
2023-01-09T08:35:09.415Z,4.09
2023-01-09T08:37:36.616Z,4.14
2023-01-09T08:40:04.094Z,4.04
2023-01-09T08:42:50.919Z,4.25
2023-01-09T08:45:36.707Z,4.26
2023-01-09T08:48:04.084Z,4.13
2023-01-09T08:50:31.286Z,4.09
2023-01-09T08:52:58.389Z,4.05
2023-01-09T08:55:25.833Z,4.09
2023-01-09T08:57:54.796Z,4.16
2023-01-09T09:00:24.321Z,4.08
2023-01-09T09:02:53.420Z,3.97
2023-01-09T09:05:21.671Z,3.89
2023-01-09T09:07:50.376Z,4.04
2023-01-09T09:10:18.062Z,4.04
2023-01-09T09:12:48.155Z,4.07
2023-01-09T09:15:24.108Z,4.16
2023-01-09T09:17:56.380Z,4.22
2023-01-09T09:20:26.184Z,4.27
2023-01-09T09:22:53.616Z,4.31
2023-01-09T09:25:21.276Z,4.34
2023-01-09T09:27:49.221Z,4.30
2023-01-09T09:30:18.615Z,4.47
2023-01-09T09:32:46.420Z,4.43
2023-01-09T09:35:14.084Z,4.45
2023-01-09T09:37:42.048Z,4.47
2023-01-09T09:40:27.989Z,4.53
2023-01-09T09:43:44.397Z,4.52
2023-01-09T09:46:37.744Z,4.58
2023-01-09T09:49:18.195Z,4.57
2023-01-09T09:52:26.746Z,4.62
2023-01-09T09:54:54.818Z,4.61
2023-01-09T09:57:32.763Z,4.57
2023-01-09T10:00:00.509Z,4.35
2023-01-09T10:02:41.771Z,4.26
2023-01-09T10:05:21.461Z,4.14
2023-01-09T10:07:51.504Z,4.33
2023-01-09T10:10:47.423Z,4.37
2023-01-09T10:13:37.262Z,4.23
2023-01-09T10:16:49.588Z,4.27
2023-01-09T10:19:35.416Z,4.34
2023-01-09T10:22:27.112Z,4.16
2023-01-09T10:25:35.776Z,4.25
2023-01-09T10:28:40.644Z,4.36
2023-01-09T10:31:21.511Z,4.37
2023-01-09T10:34:11.370Z,4.41
2023-01-09T10:36:53.400Z,4.40
2023-01-09T10:39:30.490Z,4.55
2023-01-09T10:42:04.560Z,4.46
2023-01-09T10:44:40.072Z,4.47
2023-01-09T10:47:17.588Z,4.61
2023-01-09T10:49:47.566Z,4.64
2023-01-09T10:52:20.761Z,4.58
2023-01-09T10:55:02.828Z,4.47
2023-01-09T10:57:42.880Z,4.42
2023-01-09T11:00:23.567Z,4.35
2023-01-09T11:02:53.023Z,4.44
2023-01-09T11:05:31.826Z,4.48
2023-01-09T11:08:05.982Z,4.57
2023-01-09T11:10:51.263Z,4.58
2023-01-09T11:13:26.021Z,4.50
2023-01-09T11:16:00.790Z,4.59
2023-01-09T11:18:28.187Z,4.59
2023-01-09T11:20:55.545Z,4.46
2023-01-09T11:23:33.458Z,4.46
2023-01-09T11:26:03.061Z,4.59
2023-01-09T11:28:30.620Z,4.54
2023-01-09T11:31:02.519Z,4.62
2023-01-09T11:33:47.194Z,4.67
2023-01-09T11:36:16.016Z,4.69
2023-01-09T11:38:57.642Z,4.72
2023-01-09T11:41:36.088Z,4.66
2023-01-09T11:44:05.021Z,4.74
2023-01-09T11:46:38.570Z,4.77
2023-01-09T11:49:14.973Z,4.75
2023-01-09T11:51:43.550Z,4.60
2023-01-09T11:54:36.637Z,4.64
2023-01-09T11:57:04.181Z,4.54
2023-01-09T11:59:31.900Z,4.61
2023-01-09T12:02:23.577Z,4.63
2023-01-09T12:05:09.639Z,4.72
2023-01-09T12:07:51.011Z,4.83
2023-01-09T12:11:06.776Z,4.85
2023-01-09T12:13:58.783Z,4.76
2023-01-09T12:16:26.072Z,4.59
2023-01-09T12:19:28.005Z,4.41
2023-01-09T12:25:17.817Z,4.02
2023-01-09T12:27:56.966Z,4.16
2023-01-09T12:30:24.134Z,4.21
2023-01-09T12:33:46.837Z,4.27
2023-01-09T12:36:22.343Z,4.23
2023-01-09T12:38:54.925Z,4.17
2023-01-09T12:41:42.923Z,4.18
2023-01-09T12:44:38.120Z,4.23
2023-01-09T12:47:15.926Z,4.31
2023-01-09T12:50:17.022Z,4.35
2023-01-09T12:52:49.791Z,4.39
2023-01-09T12:55:24.710Z,4.32
2023-01-09T12:57:56.301Z,4.19
2023-01-09T13:00:42.127Z,4.28
2023-01-09T13:03:37.796Z,4.31
2023-01-09T13:06:13.445Z,4.30
2023-01-09T13:09:06.770Z,4.44
2023-01-09T13:11:49.657Z,4.48
2023-01-09T13:14:25.670Z,4.35
2023-01-09T13:16:57.225Z,4.29
2023-01-09T13:19:39.578Z,4.28
2023-01-09T13:22:08.098Z,4.28
2023-01-09T13:24:43.343Z,4.28
2023-01-09T13:27:20.249Z,4.21
2023-01-09T13:29:52.541Z,4.04
2023-01-09T13:32:32.019Z,2.44
2023-01-09T13:35:01.414Z,4.01
2023-01-09T13:37:37.180Z,3.65
2023-01-09T13:40:06.644Z,3.92
2023-01-09T13:42:39.055Z,3.67
2023-01-09T13:48:29.443Z,3.66
2023-01-09T13:51:16.479Z,3.82
2023-01-09T13:53:46.950Z,3.22
2023-01-09T13:56:14.607Z,3.61
2023-01-09T13:59:00.331Z,3.89
2023-01-09T14:01:34.633Z,3.98
2023-01-09T14:04:15.005Z,3.98
2023-01-09T14:06:45.045Z,4.02
2023-01-09T14:09:20.350Z,3.97
2023-01-09T14:11:49.517Z,4.12
2023-01-09T14:14:29.030Z,4.16
2023-01-09T14:16:59.273Z,4.14
2023-01-09T14:19:39.106Z,4.16
2023-01-09T14:22:07.938Z,4.21
2023-01-09T14:24:47.213Z,4.31
2023-01-09T14:28:03.753Z,4.28
2023-01-09T14:30:34.416Z,4.25
2023-01-09T14:33:22.462Z,4.26
2023-01-09T14:36:01.207Z,4.24
2023-01-09T14:38:37.842Z,4.19
2023-01-09T14:42:06.261Z,4.24
2023-01-09T14:44:33.989Z,4.17
2023-01-09T14:47:15.089Z,4.16
2023-01-09T14:49:46.368Z,4.10
2023-01-09T14:52:54.502Z,4.17
2023-01-09T14:55:38.668Z,4.26
2023-01-09T14:58:32.936Z,4.28
2023-01-09T15:01:25.773Z,4.40
2023-01-09T15:04:02.786Z,4.25
2023-01-09T15:06:33.710Z,4.45
2023-01-09T15:09:07.835Z,4.54
2023-01-09T15:11:39.548Z,4.62
2023-01-09T15:14:08.980Z,4.48
2023-01-09T15:16:36.743Z,4.51
2023-01-09T15:19:08.157Z,4.55
2023-01-09T15:21:35.313Z,4.48
2023-01-09T15:24:22.840Z,4.61
2023-01-09T15:26:55.478Z,4.53
2023-01-09T15:29:23.153Z,4.51
2023-01-09T15:31:55.737Z,4.65
2023-01-09T15:34:25.412Z,4.60
2023-01-09T15:36:53.600Z,4.58
2023-01-09T15:39:36.177Z,4.58
2023-01-09T15:42:22.544Z,4.53
2023-01-09T15:44:53.843Z,4.35
2023-01-09T15:47:24.564Z,4.39
2023-01-09T15:49:52.624Z,4.37
2023-01-09T15:52:21.907Z,4.24
2023-01-09T15:54:49.414Z,3.96
2023-01-09T15:57:25.956Z,4.22
2023-01-09T15:59:54.552Z,4.33
2023-01-09T16:02:41.533Z,4.34
2023-01-09T16:05:16.387Z,4.37
2023-01-09T16:07:51.795Z,4.42
2023-01-09T16:10:32.899Z,4.35
2023-01-09T16:13:01.600Z,4.29
2023-01-09T16:15:34.737Z,4.32
2023-01-09T16:18:14.187Z,4.41
2023-01-09T16:20:42.470Z,4.40
2023-01-09T16:23:28.904Z,4.39
2023-01-09T16:26:20.046Z,4.38
2023-01-09T16:28:47.288Z,4.54
2023-01-09T16:31:24.469Z,4.51
2023-01-09T16:33:59.206Z,4.68
2023-01-09T16:36:28.065Z,4.68
2023-01-09T16:38:57.379Z,4.76
2023-01-09T16:41:43.035Z,4.42
2023-01-09T16:44:10.832Z,4.21
2023-01-09T16:46:43.818Z,4.34
2023-01-09T16:49:20.132Z,4.29
2023-01-09T16:51:48.409Z,4.48
2023-01-09T16:54:16.446Z,4.56
2023-01-09T16:56:45.734Z,4.67
2023-01-09T16:59:14.615Z,4.78
2023-01-09T17:01:43.483Z,4.75
2023-01-09T17:04:12.845Z,4.76
2023-01-09T17:06:41.907Z,4.71
2023-01-09T17:09:14.367Z,4.72
2023-01-09T17:11:42.327Z,4.51
2023-01-09T17:14:13.485Z,4.56
2023-01-09T17:16:46.177Z,4.61
2023-01-09T17:19:20.721Z,4.54
2023-01-09T17:21:48.541Z,4.67
2023-01-09T17:24:34.897Z,4.75
2023-01-09T17:27:21.890Z,4.81
2023-01-09T17:29:54.999Z,4.77
2023-01-09T17:32:22.331Z,4.83
2023-01-09T17:34:51.897Z,4.92
2023-01-09T17:37:19.862Z,5.04
2023-01-09T17:39:47.361Z,4.85
2023-01-09T17:42:14.679Z,5.09
2023-01-09T17:44:41.885Z,5.07
2023-01-09T17:47:15.745Z,5.09
2023-01-09T17:49:43.730Z,5.06
2023-01-09T17:52:11.220Z,5.04
2023-01-09T17:54:39.063Z,5.10
2023-01-09T17:57:07.919Z,5.15
2023-01-09T17:59:35.363Z,5.24
2023-01-09T18:02:02.725Z,5.00
2023-01-09T18:04:30.020Z,4.89
2023-01-09T18:06:57.388Z,4.92
2023-01-09T18:09:24.706Z,4.94
2023-01-09T18:11:51.852Z,4.89
2023-01-09T18:14:19.022Z,4.85
2023-01-09T18:16:46.409Z,4.92
2023-01-09T18:19:13.736Z,4.85
2023-01-09T18:21:41.002Z,4.80
2023-01-09T18:24:09.030Z,4.80
2023-01-09T18:26:36.337Z,4.87
2023-01-09T18:29:03.904Z,4.83
2023-01-09T18:31:31.429Z,4.96
2023-01-09T18:34:02.535Z,5.04
2023-01-09T18:36:30.383Z,5.04
2023-01-09T18:39:03.973Z,4.92
2023-01-09T18:41:31.595Z,4.90
2023-01-09T18:44:00.888Z,4.72
2023-01-09T18:46:32.282Z,4.69
2023-01-09T18:49:02.735Z,4.50
2023-01-09T18:51:30.268Z,4.47
2023-01-09T18:53:58.816Z,4.48
2023-01-09T18:56:26.559Z,4.61
2023-01-09T18:58:57.939Z,4.60
2023-01-09T19:01:30.200Z,4.54
2023-01-09T19:03:59.385Z,4.50
2023-01-09T19:06:27.968Z,4.26
2023-01-09T19:08:55.520Z,4.37
2023-01-09T19:11:22.750Z,4.25
2023-01-09T19:13:50.812Z,4.30
2023-01-09T19:16:18.402Z,4.39
2023-01-09T19:18:46.138Z,4.45
2023-01-09T19:21:22.489Z,4.59
2023-01-09T19:23:49.986Z,4.35
2023-01-09T19:26:27.883Z,4.34
2023-01-09T19:28:57.691Z,4.42
2023-01-09T19:31:28.289Z,4.50
2023-01-09T19:33:55.895Z,4.90
2023-01-09T19:36:23.264Z,5.13
2023-01-09T19:38:56.609Z,5.37
2023-01-09T19:41:23.666Z,5.51
2023-01-09T19:43:51.409Z,5.18
2023-01-09T19:46:24.310Z,5.10
2023-01-09T19:48:52.618Z,5.04
2023-01-09T19:51:21.402Z,5.07
2023-01-09T19:54:03.465Z,5.09
2023-01-09T19:56:35.614Z,5.10
2023-01-09T19:59:04.682Z,5.02
2023-01-09T20:01:37.782Z,5.02
2023-01-09T20:04:10.245Z,4.98
2023-01-09T20:06:41.553Z,4.85
2023-01-09T20:09:11.270Z,4.73
2023-01-09T20:11:44.741Z,4.48
2023-01-09T20:14:13.996Z,4.38
2023-01-09T20:16:42.244Z,4.31
2023-01-09T20:19:12.133Z,4.25
2023-01-09T20:21:39.471Z,4.21
2023-01-09T20:24:07.949Z,4.27
2023-01-09T20:26:36.237Z,4.22
2023-01-09T20:29:04.185Z,4.18
2023-01-09T20:31:32.605Z,4.31
2023-01-09T20:34:00.398Z,4.41
2023-01-09T20:36:31.921Z,4.53
2023-01-09T20:39:04.507Z,4.55
2023-01-09T20:41:31.991Z,4.42
2023-01-09T20:44:05.940Z,4.34
2023-01-09T20:46:41.867Z,4.29
2023-01-09T20:49:12.797Z,4.26
2023-01-09T20:51:52.207Z,4.27
2023-01-09T20:54:21.652Z,4.15
2023-01-09T20:56:49.177Z,4.16
2023-01-09T20:59:20.374Z,4.07
2023-01-09T21:01:47.723Z,3.97
2023-01-09T21:04:18.194Z,3.93
2023-01-09T21:06:45.328Z,4.07
2023-01-09T21:09:12.515Z,4.19
2023-01-09T21:11:39.953Z,4.28
2023-01-09T21:14:07.299Z,4.13
2023-01-09T21:16:34.479Z,3.98
2023-01-09T21:19:01.738Z,3.96
2023-01-09T21:21:29.468Z,4.11
2023-01-09T21:23:58.769Z,4.18
2023-01-09T21:26:29.040Z,3.99
2023-01-09T21:28:58.290Z,3.26
2023-01-09T21:31:34.743Z,3.42
2023-01-09T21:34:05.123Z,3.58
2023-01-09T21:36:32.691Z,3.64
2023-01-09T21:39:00.423Z,3.72
2023-01-09T21:41:46.190Z,3.83
2023-01-09T21:44:35.108Z,3.52
2023-01-09T21:47:03.370Z,4.01
2023-01-09T21:49:35.353Z,4.06
2023-01-09T21:52:04.308Z,4.16
2023-01-09T21:54:31.725Z,4.22
2023-01-09T21:56:59.422Z,4.16
2023-01-09T21:59:26.943Z,4.35
2023-01-09T22:01:54.282Z,4.53
2023-01-09T22:04:26.142Z,4.11
2023-01-09T22:06:53.402Z,4.16
2023-01-09T22:09:20.668Z,3.72
2023-01-09T22:11:47.836Z,3.90
2023-01-09T22:14:18.238Z,4.06
2023-01-09T22:16:46.392Z,4.14
2023-01-09T22:19:14.789Z,4.20
2023-01-09T22:21:42.037Z,4.28
2023-01-09T22:24:13.528Z,4.32
2023-01-09T22:26:40.694Z,4.37
2023-01-09T22:29:07.883Z,4.32
2023-01-09T22:31:35.396Z,4.18
2023-01-09T22:34:02.796Z,4.31
2023-01-09T22:36:31.308Z,4.33
2023-01-09T22:39:00.680Z,4.51
2023-01-09T22:41:29.890Z,4.48
2023-01-09T22:43:57.889Z,4.05
2023-01-09T22:46:25.228Z,4.00
2023-01-09T22:48:52.509Z,4.10
2023-01-09T22:51:21.643Z,4.21
2023-01-09T22:53:49.446Z,4.18
2023-01-09T22:56:19.733Z,4.22
2023-01-09T22:58:54.308Z,4.28
2023-01-09T23:01:22.824Z,4.22
2023-01-09T23:03:50.426Z,4.31
2023-01-09T23:06:20.927Z,4.31
2023-01-09T23:08:50.823Z,4.14
2023-01-09T23:11:41.859Z,4.24
2023-01-09T23:14:10.402Z,4.07
2023-01-09T23:16:37.942Z,4.18
2023-01-09T23:19:14.533Z,4.20
2023-01-09T23:21:42.684Z,4.11
2023-01-09T23:24:09.972Z,4.21
2023-01-09T23:26:40.847Z,4.17
2023-01-09T23:29:08.189Z,4.39
2023-01-09T23:31:35.718Z,4.35
2023-01-09T23:34:04.214Z,4.36
2023-01-09T23:36:31.601Z,4.24
2023-01-09T23:38:59.817Z,4.04
2023-01-09T23:41:45.808Z,4.15
2023-01-09T23:44:13.003Z,4.07
2023-01-09T23:46:40.229Z,4.26
2023-01-09T23:49:07.400Z,4.16
2023-01-09T23:51:34.564Z,4.18
2023-01-09T23:54:01.868Z,4.22
2023-01-09T23:56:30.871Z,4.35
2023-01-09T23:58:58.130Z,4.37
